sensor_id;sensor_type;location;lat;lon;timestamp;temperature;humidity
29501;DHT22;16450;50.288;10.966;2023-04-03T00:02:08;2.60;99.90
29501;DHT22;16450;50.288;10.966;2023-04-03T00:05:10;2.50;99.90
29501;DHT22;16450;50.288;10.966;2023-04-03T00:08:12;2.60;99.90
29501;DHT22;16450;50.288;10.966;2023-04-03T00:11:14;2.60;99.90
29501;DHT22;16450;50.288;10.966;2023-04-03T00:14:16;2.60;99.90
29501;DHT22;16450;50.288;10.966;2023-04-03T00:17:18;2.50;99.90
29501;DHT22;16450;50.288;10.966;2023-04-03T00:20:20;2.60;99.90
29501;DHT22;16450;50.288;10.966;2023-04-03T00:23:22;2.60;99.90
29501;DHT22;16450;50.288;10.966;2023-04-03T00:26:25;2.60;99.90
29501;DHT22;16450;50.288;10.966;2023-04-03T00:29:27;2.50;99.90
29501;DHT22;16450;50.288;10.966;2023-04-03T00:32:28;2.50;99.90
29501;DHT22;16450;50.288;10.966;2023-04-03T00:35:30;2.60;99.90
29501;DHT22;16450;50.288;10.966;2023-04-03T00:38:32;2.60;99.90
29501;DHT22;16450;50.288;10.966;2023-04-03T00:41:34;2.50;99.90
29501;DHT22;16450;50.288;10.966;2023-04-03T00:47:39;2.50;99.90
29501;DHT22;16450;50.288;10.966;2023-04-03T00:50:43;2.50;99.90
29501;DHT22;16450;50.288;10.966;2023-04-03T00:53:50;2.50;99.90
29501;DHT22;16450;50.288;10.966;2023-04-03T00:56:55;2.50;99.90
29501;DHT22;16450;50.288;10.966;2023-04-03T01:00:03;2.40;99.90
29501;DHT22;16450;50.288;10.966;2023-04-03T01:03:06;2.40;99.90
29501;DHT22;16450;50.288;10.966;2023-04-03T01:06:08;2.30;99.90
29501;DHT22;16450;50.288;10.966;2023-04-03T01:09:09;2.30;99.90
29501;DHT22;16450;50.288;10.966;2023-04-03T01:12:24;2.30;99.90
29501;DHT22;16450;50.288;10.966;2023-04-03T01:15:28;2.20;99.90
29501;DHT22;16450;50.288;10.966;2023-04-03T01:18:38;2.20;99.90
29501;DHT22;16450;50.288;10.966;2023-04-03T01:25:14;2.10;99.90
29501;DHT22;16450;50.288;10.966;2023-04-03T01:28:19;2.10;99.90
29501;DHT22;16450;50.288;10.966;2023-04-03T01:31:27;2.10;99.90
29501;DHT22;16450;50.288;10.966;2023-04-03T01:34:31;2.10;99.90
29501;DHT22;16450;50.288;10.966;2023-04-03T01:37:33;2.00;99.90
29501;DHT22;16450;50.288;10.966;2023-04-03T01:40:34;2.00;99.90
29501;DHT22;16450;50.288;10.966;2023-04-03T01:43:37;2.00;99.90
29501;DHT22;16450;50.288;10.966;2023-04-03T01:46:38;1.90;99.90
29501;DHT22;16450;50.288;10.966;2023-04-03T01:49:40;1.90;99.90
29501;DHT22;16450;50.288;10.966;2023-04-03T01:52:42;1.90;99.90
29501;DHT22;16450;50.288;10.966;2023-04-03T01:55:44;1.90;99.90
29501;DHT22;16450;50.288;10.966;2023-04-03T01:58:46;1.80;99.90
29501;DHT22;16450;50.288;10.966;2023-04-03T02:01:48;1.80;99.90
29501;DHT22;16450;50.288;10.966;2023-04-03T02:04:51;1.70;99.90
29501;DHT22;16450;50.288;10.966;2023-04-03T02:07:52;1.70;99.90
29501;DHT22;16450;50.288;10.966;2023-04-03T02:10:54;1.70;99.90
29501;DHT22;16450;50.288;10.966;2023-04-03T02:13:56;1.60;99.90
29501;DHT22;16450;50.288;10.966;2023-04-03T02:17:00;1.50;99.90
29501;DHT22;16450;50.288;10.966;2023-04-03T02:20:03;1.50;99.90
29501;DHT22;16450;50.288;10.966;2023-04-03T02:23:05;1.50;99.90
29501;DHT22;16450;50.288;10.966;2023-04-03T02:26:13;1.40;99.90
29501;DHT22;16450;50.288;10.966;2023-04-03T02:29:15;1.40;99.90
29501;DHT22;16450;50.288;10.966;2023-04-03T02:32:17;1.40;99.90
29501;DHT22;16450;50.288;10.966;2023-04-03T02:35:19;1.40;99.90
29501;DHT22;16450;50.288;10.966;2023-04-03T02:38:23;1.40;99.90
29501;DHT22;16450;50.288;10.966;2023-04-03T02:41:25;1.40;99.90
29501;DHT22;16450;50.288;10.966;2023-04-03T02:44:29;1.30;99.90
29501;DHT22;16450;50.288;10.966;2023-04-03T02:47:31;1.30;99.90
29501;DHT22;16450;50.288;10.966;2023-04-03T02:50:33;1.30;99.90
29501;DHT22;16450;50.288;10.966;2023-04-03T02:53:35;1.30;99.90
29501;DHT22;16450;50.288;10.966;2023-04-03T02:56:37;1.30;99.90
29501;DHT22;16450;50.288;10.966;2023-04-03T02:59:39;1.30;99.90
29501;DHT22;16450;50.288;10.966;2023-04-03T03:02:42;1.30;99.90
29501;DHT22;16450;50.288;10.966;2023-04-03T03:05:44;1.30;99.90
29501;DHT22;16450;50.288;10.966;2023-04-03T03:08:45;1.30;99.90
29501;DHT22;16450;50.288;10.966;2023-04-03T03:11:47;1.30;99.90
29501;DHT22;16450;50.288;10.966;2023-04-03T03:14:49;1.30;99.90
29501;DHT22;16450;50.288;10.966;2023-04-03T03:17:51;1.30;99.90
29501;DHT22;16450;50.288;10.966;2023-04-03T03:20:54;1.30;99.90
29501;DHT22;16450;50.288;10.966;2023-04-03T03:23:56;1.30;99.90
29501;DHT22;16450;50.288;10.966;2023-04-03T03:26:58;1.40;99.90
29501;DHT22;16450;50.288;10.966;2023-04-03T03:30:00;1.30;99.90
29501;DHT22;16450;50.288;10.966;2023-04-03T03:33:02;1.30;99.90
29501;DHT22;16450;50.288;10.966;2023-04-03T03:36:04;1.30;99.90
29501;DHT22;16450;50.288;10.966;2023-04-03T03:39:06;1.30;99.90
29501;DHT22;16450;50.288;10.966;2023-04-03T03:42:07;1.30;99.90
29501;DHT22;16450;50.288;10.966;2023-04-03T03:45:10;1.30;99.90
29501;DHT22;16450;50.288;10.966;2023-04-03T03:48:12;1.20;99.90
29501;DHT22;16450;50.288;10.966;2023-04-03T03:51:14;1.20;99.90
29501;DHT22;16450;50.288;10.966;2023-04-03T03:54:15;1.20;99.90
29501;DHT22;16450;50.288;10.966;2023-04-03T03:57:17;1.10;99.90
29501;DHT22;16450;50.288;10.966;2023-04-03T04:00:19;1.10;99.90
29501;DHT22;16450;50.288;10.966;2023-04-03T04:03:21;1.10;99.90
29501;DHT22;16450;50.288;10.966;2023-04-03T04:06:23;1.00;99.90
29501;DHT22;16450;50.288;10.966;2023-04-03T04:09:25;0.90;99.90
29501;DHT22;16450;50.288;10.966;2023-04-03T04:12:27;0.90;99.90
29501;DHT22;16450;50.288;10.966;2023-04-03T04:15:29;0.80;99.90
29501;DHT22;16450;50.288;10.966;2023-04-03T04:18:31;0.80;99.90
29501;DHT22;16450;50.288;10.966;2023-04-03T04:21:33;0.70;99.90
29501;DHT22;16450;50.288;10.966;2023-04-03T04:24:35;0.70;99.90
29501;DHT22;16450;50.288;10.966;2023-04-03T04:27:39;0.70;99.90
29501;DHT22;16450;50.288;10.966;2023-04-03T04:30:41;0.60;99.90
29501;DHT22;16450;50.288;10.966;2023-04-03T04:33:43;0.60;99.90
29501;DHT22;16450;50.288;10.966;2023-04-03T04:36:45;0.50;99.90
29501;DHT22;16450;50.288;10.966;2023-04-03T04:39:47;0.50;99.90
29501;DHT22;16450;50.288;10.966;2023-04-03T04:42:49;0.40;99.90
29501;DHT22;16450;50.288;10.966;2023-04-03T04:46:03;0.40;99.90
29501;DHT22;16450;50.288;10.966;2023-04-03T04:49:05;0.40;99.90
29501;DHT22;16450;50.288;10.966;2023-04-03T04:52:07;0.40;99.90
29501;DHT22;16450;50.288;10.966;2023-04-03T04:55:09;0.30;99.90
29501;DHT22;16450;50.288;10.966;2023-04-03T04:58:11;0.40;99.90
29501;DHT22;16450;50.288;10.966;2023-04-03T05:01:13;0.30;99.90
29501;DHT22;16450;50.288;10.966;2023-04-03T05:04:15;0.30;99.90
29501;DHT22;16450;50.288;10.966;2023-04-03T05:07:17;0.30;99.90
29501;DHT22;16450;50.288;10.966;2023-04-03T05:10:19;0.30;99.90
29501;DHT22;16450;50.288;10.966;2023-04-03T05:13:22;0.30;99.90
29501;DHT22;16450;50.288;10.966;2023-04-03T05:16:24;0.30;99.90
29501;DHT22;16450;50.288;10.966;2023-04-03T05:19:27;0.30;99.90
29501;DHT22;16450;50.288;10.966;2023-04-03T05:22:28;0.40;99.90
29501;DHT22;16450;50.288;10.966;2023-04-03T05:25:30;0.40;99.90
29501;DHT22;16450;50.288;10.966;2023-04-03T05:28:32;0.40;99.90
29501;DHT22;16450;50.288;10.966;2023-04-03T05:31:34;0.40;99.90
29501;DHT22;16450;50.288;10.966;2023-04-03T05:34:36;0.40;99.90
29501;DHT22;16450;50.288;10.966;2023-04-03T05:37:39;0.50;99.90
29501;DHT22;16450;50.288;10.966;2023-04-03T05:40:41;0.50;99.90
29501;DHT22;16450;50.288;10.966;2023-04-03T05:43:43;0.50;99.90
29501;DHT22;16450;50.288;10.966;2023-04-03T05:46:45;0.60;99.90
29501;DHT22;16450;50.288;10.966;2023-04-03T05:49:47;0.60;99.90
29501;DHT22;16450;50.288;10.966;2023-04-03T05:52:51;0.70;99.90
29501;DHT22;16450;50.288;10.966;2023-04-03T05:55:54;0.60;99.90
29501;DHT22;16450;50.288;10.966;2023-04-03T05:58:56;0.60;99.90
29501;DHT22;16450;50.288;10.966;2023-04-03T06:01:58;0.60;99.90
29501;DHT22;16450;50.288;10.966;2023-04-03T06:05:00;0.60;99.90
29501;DHT22;16450;50.288;10.966;2023-04-03T06:08:02;0.60;99.90
29501;DHT22;16450;50.288;10.966;2023-04-03T06:11:04;0.60;99.90
29501;DHT22;16450;50.288;10.966;2023-04-03T06:14:06;0.60;99.90
29501;DHT22;16450;50.288;10.966;2023-04-03T06:17:08;0.60;99.90
29501;DHT22;16450;50.288;10.966;2023-04-03T06:20:11;0.70;99.90
29501;DHT22;16450;50.288;10.966;2023-04-03T06:23:13;0.70;99.90
29501;DHT22;16450;50.288;10.966;2023-04-03T06:26:15;0.70;99.90
29501;DHT22;16450;50.288;10.966;2023-04-03T06:29:18;0.70;99.90
29501;DHT22;16450;50.288;10.966;2023-04-03T06:32:20;0.70;99.90
29501;DHT22;16450;50.288;10.966;2023-04-03T06:35:21;0.70;99.90
29501;DHT22;16450;50.288;10.966;2023-04-03T06:38:25;0.80;99.90
29501;DHT22;16450;50.288;10.966;2023-04-03T06:41:27;0.80;99.90
29501;DHT22;16450;50.288;10.966;2023-04-03T06:44:29;0.80;99.90
29501;DHT22;16450;50.288;10.966;2023-04-03T06:47:30;0.80;99.90
29501;DHT22;16450;50.288;10.966;2023-04-03T06:50:32;0.90;99.90
29501;DHT22;16450;50.288;10.966;2023-04-03T06:53:34;1.00;99.90
29501;DHT22;16450;50.288;10.966;2023-04-03T06:56:36;1.10;99.90
29501;DHT22;16450;50.288;10.966;2023-04-03T06:59:38;1.10;99.90
29501;DHT22;16450;50.288;10.966;2023-04-03T07:02:40;1.20;99.90
29501;DHT22;16450;50.288;10.966;2023-04-03T07:05:42;1.30;99.90
29501;DHT22;16450;50.288;10.966;2023-04-03T07:08:46;1.40;99.90
29501;DHT22;16450;50.288;10.966;2023-04-03T07:11:49;1.50;99.90
29501;DHT22;16450;50.288;10.966;2023-04-03T07:14:51;1.60;99.90
29501;DHT22;16450;50.288;10.966;2023-04-03T07:17:53;1.60;99.90
29501;DHT22;16450;50.288;10.966;2023-04-03T07:20:55;1.70;99.90
29501;DHT22;16450;50.288;10.966;2023-04-03T07:23:57;1.70;99.90
29501;DHT22;16450;50.288;10.966;2023-04-03T07:26:59;1.70;99.90
29501;DHT22;16450;50.288;10.966;2023-04-03T07:30:00;1.80;99.90
29501;DHT22;16450;50.288;10.966;2023-04-03T07:33:02;1.80;99.90
29501;DHT22;16450;50.288;10.966;2023-04-03T07:36:05;1.90;99.90
29501;DHT22;16450;50.288;10.966;2023-04-03T07:39:08;2.00;99.90
29501;DHT22;16450;50.288;10.966;2023-04-03T07:42:10;2.10;99.90
29501;DHT22;16450;50.288;10.966;2023-04-03T07:45:13;2.20;99.90
29501;DHT22;16450;50.288;10.966;2023-04-03T07:48:17;2.30;99.90
29501;DHT22;16450;50.288;10.966;2023-04-03T07:51:19;2.40;99.90
29501;DHT22;16450;50.288;10.966;2023-04-03T07:54:21;2.50;99.90
29501;DHT22;16450;50.288;10.966;2023-04-03T07:57:23;2.60;99.90
29501;DHT22;16450;50.288;10.966;2023-04-03T08:00:25;2.70;99.90
29501;DHT22;16450;50.288;10.966;2023-04-03T08:03:26;2.80;99.90
29501;DHT22;16450;50.288;10.966;2023-04-03T08:06:30;3.00;99.90
29501;DHT22;16450;50.288;10.966;2023-04-03T08:09:46;3.10;99.90
29501;DHT22;16450;50.288;10.966;2023-04-03T08:12:48;3.10;99.90
29501;DHT22;16450;50.288;10.966;2023-04-03T08:15:50;3.10;99.90
29501;DHT22;16450;50.288;10.966;2023-04-03T08:18:53;3.10;99.90
29501;DHT22;16450;50.288;10.966;2023-04-03T08:21:55;3.00;99.90
29501;DHT22;16450;50.288;10.966;2023-04-03T08:24:58;2.90;99.90
29501;DHT22;16450;50.288;10.966;2023-04-03T08:28:00;2.90;99.90
29501;DHT22;16450;50.288;10.966;2023-04-03T08:31:05;2.80;99.90
29501;DHT22;16450;50.288;10.966;2023-04-03T08:34:08;2.70;99.90
29501;DHT22;16450;50.288;10.966;2023-04-03T08:37:10;2.80;99.90
29501;DHT22;16450;50.288;10.966;2023-04-03T08:40:14;3.00;99.90
29501;DHT22;16450;50.288;10.966;2023-04-03T08:50:31;4.30;99.90
29501;DHT22;16450;50.288;10.966;2023-04-03T08:53:40;4.80;99.90
29501;DHT22;16450;50.288;10.966;2023-04-03T08:56:43;5.10;99.90
29501;DHT22;16450;50.288;10.966;2023-04-03T08:59:46;5.40;99.90
29501;DHT22;16450;50.288;10.966;2023-04-03T09:02:54;5.40;99.90
29501;DHT22;16450;50.288;10.966;2023-04-03T09:09:36;5.00;98.10
29501;DHT22;16450;50.288;10.966;2023-04-03T09:12:44;4.80;99.90
29501;DHT22;16450;50.288;10.966;2023-04-03T09:15:49;4.80;99.90
29501;DHT22;16450;50.288;10.966;2023-04-03T09:22:34;5.00;99.90
29501;DHT22;16450;50.288;10.966;2023-04-03T09:25:51;5.30;99.90
29501;DHT22;16450;50.288;10.966;2023-04-03T09:28:58;5.50;99.90
29501;DHT22;16450;50.288;10.966;2023-04-03T09:32:18;5.70;99.90
29501;DHT22;16450;50.288;10.966;2023-04-03T09:35:29;5.80;99.90
29501;DHT22;16450;50.288;10.966;2023-04-03T09:39:06;5.90;99.90
29501;DHT22;16450;50.288;10.966;2023-04-03T09:42:35;6.10;99.90
29501;DHT22;16450;50.288;10.966;2023-04-03T09:45:48;6.20;99.60
29501;DHT22;16450;50.288;10.966;2023-04-03T09:48:52;6.40;99.90
29501;DHT22;16450;50.288;10.966;2023-04-03T09:52:25;6.60;99.90
29501;DHT22;16450;50.288;10.966;2023-04-03T09:55:27;6.80;99.90
29501;DHT22;16450;50.288;10.966;2023-04-03T09:58:38;6.90;99.90
29501;DHT22;16450;50.288;10.966;2023-04-03T10:02:16;7.10;99.90
29501;DHT22;16450;50.288;10.966;2023-04-03T10:05:38;7.20;99.20
29501;DHT22;16450;50.288;10.966;2023-04-03T10:08:40;7.30;99.10
29501;DHT22;16450;50.288;10.966;2023-04-03T10:12:05;7.40;99.90
29501;DHT22;16450;50.288;10.966;2023-04-03T10:15:17;7.50;98.70
29501;DHT22;16450;50.288;10.966;2023-04-03T10:18:27;7.60;99.90
29501;DHT22;16450;50.288;10.966;2023-04-03T10:21:48;7.60;99.90
29501;DHT22;16450;50.288;10.966;2023-04-03T10:34:31;7.50;99.70
29501;DHT22;16450;50.288;10.966;2023-04-03T10:37:58;7.40;96.90
29501;DHT22;16450;50.288;10.966;2023-04-03T10:50:58;7.30;97.90
29501;DHT22;16450;50.288;10.966;2023-04-03T10:54:05;7.30;98.70
29501;DHT22;16450;50.288;10.966;2023-04-03T10:57:10;7.30;99.90
29501;DHT22;16450;50.288;10.966;2023-04-03T11:00:25;7.30;99.50
29501;DHT22;16450;50.288;10.966;2023-04-03T11:03:39;7.20;97.90
29501;DHT22;16450;50.288;10.966;2023-04-03T11:06:51;7.20;97.60
29501;DHT22;16450;50.288;10.966;2023-04-03T11:10:03;7.10;97.60
29501;DHT22;16450;50.288;10.966;2023-04-03T11:13:19;7.00;97.70
29501;DHT22;16450;50.288;10.966;2023-04-03T11:16:27;7.00;98.00
29501;DHT22;16450;50.288;10.966;2023-04-03T11:19:42;6.90;98.40
29501;DHT22;16450;50.288;10.966;2023-04-03T11:22:51;6.90;97.90
29501;DHT22;16450;50.288;10.966;2023-04-03T11:26:35;6.80;98.40
29501;DHT22;16450;50.288;10.966;2023-04-03T11:29:33;6.80;98.30
29501;DHT22;16450;50.288;10.966;2023-04-03T11:36:08;6.80;96.80
29501;DHT22;16450;50.288;10.966;2023-04-03T11:39:34;6.80;98.70
29501;DHT22;16450;50.288;10.966;2023-04-03T11:42:42;6.80;99.50
29501;DHT22;16450;50.288;10.966;2023-04-03T11:45:54;6.80;98.90
29501;DHT22;16450;50.288;10.966;2023-04-03T11:48:57;6.80;97.70
29501;DHT22;16450;50.288;10.966;2023-04-03T11:52:00;6.80;99.70
29501;DHT22;16450;50.288;10.966;2023-04-03T11:55:02;6.80;99.90
29501;DHT22;16450;50.288;10.966;2023-04-03T11:58:34;6.80;99.50
29501;DHT22;16450;50.288;10.966;2023-04-03T12:02:14;6.90;98.30
29501;DHT22;16450;50.288;10.966;2023-04-03T12:05:27;6.90;96.80
29501;DHT22;16450;50.288;10.966;2023-04-03T12:11:36;6.80;98.50
29501;DHT22;16450;50.288;10.966;2023-04-03T12:14:38;6.80;99.40
29501;DHT22;16450;50.288;10.966;2023-04-03T12:17:40;6.90;99.00
29501;DHT22;16450;50.288;10.966;2023-04-03T12:20:52;6.80;99.00
29501;DHT22;16450;50.288;10.966;2023-04-03T12:27:40;6.80;97.50
29501;DHT22;16450;50.288;10.966;2023-04-03T12:30:43;6.90;96.80
29501;DHT22;16450;50.288;10.966;2023-04-03T12:34:16;6.90;99.80
29501;DHT22;16450;50.288;10.966;2023-04-03T12:37:51;7.00;95.50
29501;DHT22;16450;50.288;10.966;2023-04-03T12:47:44;7.10;97.20
29501;DHT22;16450;50.288;10.966;2023-04-03T12:50:47;7.20;99.40
29501;DHT22;16450;50.288;10.966;2023-04-03T12:53:52;7.20;99.60
29501;DHT22;16450;50.288;10.966;2023-04-03T12:57:10;7.30;99.30
29501;DHT22;16450;50.288;10.966;2023-04-03T13:03:24;7.50;98.10
29501;DHT22;16450;50.288;10.966;2023-04-03T13:06:38;7.50;98.60
29501;DHT22;16450;50.288;10.966;2023-04-03T13:09:41;7.50;97.70
29501;DHT22;16450;50.288;10.966;2023-04-03T13:12:57;7.60;99.90
29501;DHT22;16450;50.288;10.966;2023-04-03T13:16:08;7.70;96.90
29501;DHT22;16450;50.288;10.966;2023-04-03T13:19:18;7.80;97.60
29501;DHT22;16450;50.288;10.966;2023-04-03T13:22:27;7.80;97.60
29501;DHT22;16450;50.288;10.966;2023-04-03T13:25:32;7.90;97.70
29501;DHT22;16450;50.288;10.966;2023-04-03T13:28:35;7.90;98.60
29501;DHT22;16450;50.288;10.966;2023-04-03T13:31:39;7.90;98.40
29501;DHT22;16450;50.288;10.966;2023-04-03T13:34:42;7.90;98.60
29501;DHT22;16450;50.288;10.966;2023-04-03T13:37:58;8.00;98.20
29501;DHT22;16450;50.288;10.966;2023-04-03T13:41:21;8.00;96.60
29501;DHT22;16450;50.288;10.966;2023-04-03T13:44:35;8.00;97.70
29501;DHT22;16450;50.288;10.966;2023-04-03T13:47:40;8.10;97.80
29501;DHT22;16450;50.288;10.966;2023-04-03T13:50:59;8.10;98.00
29501;DHT22;16450;50.288;10.966;2023-04-03T13:54:19;8.10;95.20
29501;DHT22;16450;50.288;10.966;2023-04-03T13:57:21;8.10;95.60
29501;DHT22;16450;50.288;10.966;2023-04-03T14:00:37;8.10;98.10
29501;DHT22;16450;50.288;10.966;2023-04-03T14:03:46;8.10;95.40
29501;DHT22;16450;50.288;10.966;2023-04-03T14:06:48;8.10;96.10
29501;DHT22;16450;50.288;10.966;2023-04-03T14:09:51;8.10;97.10
29501;DHT22;16450;50.288;10.966;2023-04-03T14:12:53;8.10;97.40
29501;DHT22;16450;50.288;10.966;2023-04-03T14:15:57;8.20;98.50
29501;DHT22;16450;50.288;10.966;2023-04-03T14:19:20;8.30;98.10
29501;DHT22;16450;50.288;10.966;2023-04-03T14:22:25;8.30;96.10
29501;DHT22;16450;50.288;10.966;2023-04-03T14:25:27;8.20;95.50
29501;DHT22;16450;50.288;10.966;2023-04-03T14:28:31;8.10;95.20
29501;DHT22;16450;50.288;10.966;2023-04-03T14:31:33;7.90;95.10
29501;DHT22;16450;50.288;10.966;2023-04-03T14:34:35;7.70;95.90
29501;DHT22;16450;50.288;10.966;2023-04-03T14:37:37;7.70;96.80
29501;DHT22;16450;50.288;10.966;2023-04-03T14:40:39;7.70;97.40
29501;DHT22;16450;50.288;10.966;2023-04-03T14:43:41;7.70;97.60
29501;DHT22;16450;50.288;10.966;2023-04-03T14:46:44;7.70;97.00
29501;DHT22;16450;50.288;10.966;2023-04-03T14:50:02;7.70;96.40
29501;DHT22;16450;50.288;10.966;2023-04-03T14:53:04;7.60;96.10
29501;DHT22;16450;50.288;10.966;2023-04-03T14:56:25;7.50;95.80
29501;DHT22;16450;50.288;10.966;2023-04-03T14:59:29;7.40;91.70
29501;DHT22;16450;50.288;10.966;2023-04-03T15:02:34;7.20;94.30
29501;DHT22;16450;50.288;10.966;2023-04-03T15:05:36;7.10;94.80
29501;DHT22;16450;50.288;10.966;2023-04-03T15:08:39;7.00;96.20
29501;DHT22;16450;50.288;10.966;2023-04-03T15:11:42;7.10;96.30
29501;DHT22;16450;50.288;10.966;2023-04-03T15:14:44;7.10;96.70
29501;DHT22;16450;50.288;10.966;2023-04-03T15:17:58;7.10;96.90
29501;DHT22;16450;50.288;10.966;2023-04-03T15:21:01;7.10;96.50
29501;DHT22;16450;50.288;10.966;2023-04-03T15:24:03;7.10;95.80
29501;DHT22;16450;50.288;10.966;2023-04-03T15:27:06;7.10;95.60
29501;DHT22;16450;50.288;10.966;2023-04-03T15:30:13;7.00;95.20
29501;DHT22;16450;50.288;10.966;2023-04-03T15:33:15;6.90;94.40
29501;DHT22;16450;50.288;10.966;2023-04-03T15:36:17;6.90;95.30
29501;DHT22;16450;50.288;10.966;2023-04-03T15:39:25;6.80;95.50
29501;DHT22;16450;50.288;10.966;2023-04-03T15:42:27;6.70;94.30
29501;DHT22;16450;50.288;10.966;2023-04-03T15:45:30;6.60;95.30
29501;DHT22;16450;50.288;10.966;2023-04-03T15:48:32;6.60;95.00
29501;DHT22;16450;50.288;10.966;2023-04-03T15:51:35;6.60;95.80
29501;DHT22;16450;50.288;10.966;2023-04-03T15:54:37;6.60;95.40
29501;DHT22;16450;50.288;10.966;2023-04-03T15:57:38;6.50;95.20
29501;DHT22;16450;50.288;10.966;2023-04-03T16:00:45;6.50;95.30
29501;DHT22;16450;50.288;10.966;2023-04-03T16:03:47;6.40;95.10
29501;DHT22;16450;50.288;10.966;2023-04-03T16:06:50;6.40;95.10
29501;DHT22;16450;50.288;10.966;2023-04-03T16:09:52;6.40;95.70
29501;DHT22;16450;50.288;10.966;2023-04-03T16:12:53;6.40;96.10
29501;DHT22;16450;50.288;10.966;2023-04-03T16:15:56;6.50;96.30
29501;DHT22;16450;50.288;10.966;2023-04-03T16:18:58;6.50;95.70
29501;DHT22;16450;50.288;10.966;2023-04-03T16:22:00;6.50;95.30
29501;DHT22;16450;50.288;10.966;2023-04-03T16:25:02;6.50;94.70
29501;DHT22;16450;50.288;10.966;2023-04-03T16:28:04;6.40;93.90
29501;DHT22;16450;50.288;10.966;2023-04-03T16:31:07;6.30;93.40
29501;DHT22;16450;50.288;10.966;2023-04-03T16:34:09;6.10;93.10
29501;DHT22;16450;50.288;10.966;2023-04-03T16:37:11;6.00;93.80
29501;DHT22;16450;50.288;10.966;2023-04-03T16:40:13;5.90;94.10
29501;DHT22;16450;50.288;10.966;2023-04-03T16:43:16;5.90;94.30
29501;DHT22;16450;50.288;10.966;2023-04-03T16:46:17;5.90;94.30
29501;DHT22;16450;50.288;10.966;2023-04-03T16:49:19;5.80;94.20
29501;DHT22;16450;50.288;10.966;2023-04-03T16:52:21;5.70;94.00
29501;DHT22;16450;50.288;10.966;2023-04-03T16:55:23;5.70;93.60
29501;DHT22;16450;50.288;10.966;2023-04-03T16:58:25;5.60;93.50
29501;DHT22;16450;50.288;10.966;2023-04-03T17:01:27;5.50;93.20
29501;DHT22;16450;50.288;10.966;2023-04-03T17:04:29;5.40;93.30
29501;DHT22;16450;50.288;10.966;2023-04-03T17:07:31;5.30;93.30
29501;DHT22;16450;50.288;10.966;2023-04-03T17:10:33;5.20;93.10
29501;DHT22;16450;50.288;10.966;2023-04-03T17:13:37;5.20;93.30
29501;DHT22;16450;50.288;10.966;2023-04-03T17:16:39;5.20;93.40
29501;DHT22;16450;50.288;10.966;2023-04-03T17:19:43;5.20;94.10
29501;DHT22;16450;50.288;10.966;2023-04-03T17:22:45;5.10;92.90
29501;DHT22;16450;50.288;10.966;2023-04-03T17:25:46;5.10;93.50
29501;DHT22;16450;50.288;10.966;2023-04-03T17:28:48;5.00;93.20
29501;DHT22;16450;50.288;10.966;2023-04-03T17:31:50;4.90;93.10
29501;DHT22;16450;50.288;10.966;2023-04-03T17:34:52;4.80;92.90
29501;DHT22;16450;50.288;10.966;2023-04-03T17:37:54;4.80;93.30
29501;DHT22;16450;50.288;10.966;2023-04-03T17:40:57;4.70;93.40
29501;DHT22;16450;50.288;10.966;2023-04-03T17:43:59;4.70;93.20
29501;DHT22;16450;50.288;10.966;2023-04-03T17:47:01;4.60;93.60
29501;DHT22;16450;50.288;10.966;2023-04-03T17:50:04;4.60;93.50
29501;DHT22;16450;50.288;10.966;2023-04-03T17:53:06;4.60;93.80
29501;DHT22;16450;50.288;10.966;2023-04-03T17:56:13;4.60;93.80
29501;DHT22;16450;50.288;10.966;2023-04-03T17:59:16;4.60;93.70
29501;DHT22;16450;50.288;10.966;2023-04-03T18:02:19;4.60;93.70
29501;DHT22;16450;50.288;10.966;2023-04-03T18:05:21;4.60;93.80
29501;DHT22;16450;50.288;10.966;2023-04-03T18:08:22;4.60;94.00
29501;DHT22;16450;50.288;10.966;2023-04-03T18:11:26;4.50;93.90
29501;DHT22;16450;50.288;10.966;2023-04-03T18:14:28;4.50;93.90
29501;DHT22;16450;50.288;10.966;2023-04-03T18:17:30;4.50;94.10
29501;DHT22;16450;50.288;10.966;2023-04-03T18:20:32;4.40;93.70
29501;DHT22;16450;50.288;10.966;2023-04-03T18:23:35;4.40;94.10
29501;DHT22;16450;50.288;10.966;2023-04-03T18:26:41;4.30;93.20
29501;DHT22;16450;50.288;10.966;2023-04-03T18:29:48;4.30;93.10
29501;DHT22;16450;50.288;10.966;2023-04-03T18:32:51;4.30;93.00
29501;DHT22;16450;50.288;10.966;2023-04-03T18:35:53;4.30;93.50
29501;DHT22;16450;50.288;10.966;2023-04-03T18:38:55;4.20;93.80
29501;DHT22;16450;50.288;10.966;2023-04-03T18:41:58;4.20;93.70
29501;DHT22;16450;50.288;10.966;2023-04-03T18:45:05;4.20;93.70
29501;DHT22;16450;50.288;10.966;2023-04-03T18:48:07;4.20;93.70
29501;DHT22;16450;50.288;10.966;2023-04-03T18:51:10;4.10;93.60
29501;DHT22;16450;50.288;10.966;2023-04-03T18:54:12;4.10;93.40
29501;DHT22;16450;50.288;10.966;2023-04-03T18:57:14;4.00;93.80
29501;DHT22;16450;50.288;10.966;2023-04-03T19:00:17;4.00;94.10
29501;DHT22;16450;50.288;10.966;2023-04-03T19:03:19;4.00;93.70
29501;DHT22;16450;50.288;10.966;2023-04-03T19:06:21;4.00;93.90
29501;DHT22;16450;50.288;10.966;2023-04-03T19:09:24;3.90;94.00
29501;DHT22;16450;50.288;10.966;2023-04-03T19:12:26;3.90;93.40
29501;DHT22;16450;50.288;10.966;2023-04-03T19:15:28;3.90;94.00
29501;DHT22;16450;50.288;10.966;2023-04-03T19:18:31;3.90;94.00
29501;DHT22;16450;50.288;10.966;2023-04-03T19:21:32;3.90;94.30
29501;DHT22;16450;50.288;10.966;2023-04-03T19:24:35;3.90;94.00
29501;DHT22;16450;50.288;10.966;2023-04-03T19:27:38;3.90;94.40
29501;DHT22;16450;50.288;10.966;2023-04-03T19:30:40;3.90;94.00
29501;DHT22;16450;50.288;10.966;2023-04-03T19:33:43;3.90;94.10
29501;DHT22;16450;50.288;10.966;2023-04-03T19:36:45;3.80;94.00
29501;DHT22;16450;50.288;10.966;2023-04-03T19:39:47;3.80;94.30
29501;DHT22;16450;50.288;10.966;2023-04-03T19:42:49;3.70;94.40
29501;DHT22;16450;50.288;10.966;2023-04-03T19:45:52;3.70;94.40
29501;DHT22;16450;50.288;10.966;2023-04-03T19:48:55;3.70;94.70
29501;DHT22;16450;50.288;10.966;2023-04-03T19:51:56;3.60;94.60
29501;DHT22;16450;50.288;10.966;2023-04-03T19:54:58;3.60;94.80
29501;DHT22;16450;50.288;10.966;2023-04-03T19:58:00;3.60;94.50
29501;DHT22;16450;50.288;10.966;2023-04-03T20:01:02;3.50;94.30
29501;DHT22;16450;50.288;10.966;2023-04-03T20:04:05;3.50;94.30
29501;DHT22;16450;50.288;10.966;2023-04-03T20:07:07;3.50;94.30
29501;DHT22;16450;50.288;10.966;2023-04-03T20:10:09;3.50;94.40
29501;DHT22;16450;50.288;10.966;2023-04-03T20:13:12;3.50;94.40
29501;DHT22;16450;50.288;10.966;2023-04-03T20:16:14;3.60;94.50
29501;DHT22;16450;50.288;10.966;2023-04-03T20:19:16;3.50;94.70
29501;DHT22;16450;50.288;10.966;2023-04-03T20:22:18;3.50;94.70
29501;DHT22;16450;50.288;10.966;2023-04-03T20:25:20;3.50;94.60
29501;DHT22;16450;50.288;10.966;2023-04-03T20:28:42;3.50;94.60